sensor_id;sensor_type;location;lat;lon;timestamp;pressure;altitude;pressure_sealevel;temperature;humidity
13407;BME280;6774;48.208;10.766;2023-02-13T00:01:03;97386.66;;;2.61;89.79
13407;BME280;6774;48.208;10.766;2023-02-13T00:03:32;97386.28;;;2.67;89.50
13407;BME280;6774;48.208;10.766;2023-02-13T00:05:59;97387.97;;;2.68;89.77
13407;BME280;6774;48.208;10.766;2023-02-13T00:08:27;97391.09;;;2.73;89.32
13407;BME280;6774;48.208;10.766;2023-02-13T00:10:55;97379.00;;;2.72;89.49
13407;BME280;6774;48.208;10.766;2023-02-13T00:13:25;97382.28;;;2.75;90.05
13407;BME280;6774;48.208;10.766;2023-02-13T00:15:56;97378.84;;;2.75;89.89
13407;BME280;6774;48.208;10.766;2023-02-13T00:18:25;97373.63;;;2.75;89.61
13407;BME280;6774;48.208;10.766;2023-02-13T00:20:57;97375.31;;;2.76;90.01
13407;BME280;6774;48.208;10.766;2023-02-13T00:23:25;97367.28;;;2.79;89.48
13407;BME280;6774;48.208;10.766;2023-02-13T00:25:53;97361.13;;;2.80;89.83
13407;BME280;6774;48.208;10.766;2023-02-13T00:28:21;97362.81;;;2.81;89.76
13407;BME280;6774;48.208;10.766;2023-02-13T00:30:50;97368.84;;;2.81;89.78
13407;BME280;6774;48.208;10.766;2023-02-13T00:33:18;97368.03;;;2.81;89.51
13407;BME280;6774;48.208;10.766;2023-02-13T00:35:46;97363.66;;;2.81;90.12
13407;BME280;6774;48.208;10.766;2023-02-13T00:38:14;97368.75;;;2.83;89.40
13407;BME280;6774;48.208;10.766;2023-02-13T00:40:43;97364.31;;;2.85;89.75
13407;BME280;6774;48.208;10.766;2023-02-13T00:43:11;97364.13;;;2.88;89.76
13407;BME280;6774;48.208;10.766;2023-02-13T00:45:38;97364.47;;;2.82;90.13
13407;BME280;6774;48.208;10.766;2023-02-13T00:48:07;97368.84;;;2.81;89.81
13407;BME280;6774;48.208;10.766;2023-02-13T00:50:35;97374.91;;;2.82;89.84
13407;BME280;6774;48.208;10.766;2023-02-13T00:53:03;97371.88;;;2.75;90.33
13407;BME280;6774;48.208;10.766;2023-02-13T00:55:31;97387.56;;;2.74;89.86
13407;BME280;6774;48.208;10.766;2023-02-13T00:57:59;97374.47;;;2.75;89.75
13407;BME280;6774;48.208;10.766;2023-02-13T01:00:27;97373.44;;;2.78;89.95
13407;BME280;6774;48.208;10.766;2023-02-13T01:02:55;97376.03;;;2.78;89.99
13407;BME280;6774;48.208;10.766;2023-02-13T01:05:24;97379.75;;;2.74;90.29
13407;BME280;6774;48.208;10.766;2023-02-13T01:07:55;97371.75;;;2.77;90.18
13407;BME280;6774;48.208;10.766;2023-02-13T01:10:23;97370.44;;;2.70;89.69
13407;BME280;6774;48.208;10.766;2023-02-13T01:12:52;97362.63;;;2.70;89.98
13407;BME280;6774;48.208;10.766;2023-02-13T01:15:20;97370.66;;;2.67;89.91
13407;BME280;6774;48.208;10.766;2023-02-13T01:17:48;97367.22;;;2.66;90.12
13407;BME280;6774;48.208;10.766;2023-02-13T01:20:16;97374.19;;;2.66;89.92
13407;BME280;6774;48.208;10.766;2023-02-13T01:22:45;97367.09;;;2.68;89.68
13407;BME280;6774;48.208;10.766;2023-02-13T01:25:13;97371.47;;;2.53;90.38
13407;BME280;6774;48.208;10.766;2023-02-13T01:27:40;97373.63;;;2.61;90.14
13407;BME280;6774;48.208;10.766;2023-02-13T01:30:10;97378.09;;;2.59;89.81
13407;BME280;6774;48.208;10.766;2023-02-13T01:32:40;97371.75;;;2.63;89.69
13407;BME280;6774;48.208;10.766;2023-02-13T01:35:10;97369.69;;;2.53;89.81
13407;BME280;6774;48.208;10.766;2023-02-13T01:37:39;97369.41;;;2.44;90.90
13407;BME280;6774;48.208;10.766;2023-02-13T01:40:11;97378.25;;;2.55;90.05
13407;BME280;6774;48.208;10.766;2023-02-13T01:42:40;97367.75;;;2.57;90.72
13407;BME280;6774;48.208;10.766;2023-02-13T01:45:19;97374.66;;;2.58;89.99
13407;BME280;6774;48.208;10.766;2023-02-13T01:47:52;97360.94;;;2.54;89.87
13407;BME280;6774;48.208;10.766;2023-02-13T01:50:24;97366.72;;;2.60;90.51
13407;BME280;6774;48.208;10.766;2023-02-13T01:53:00;97365.81;;;2.61;89.88
13407;BME280;6774;48.208;10.766;2023-02-13T01:55:34;97371.91;;;2.45;90.09
13407;BME280;6774;48.208;10.766;2023-02-13T01:58:07;97366.16;;;2.54;90.65
13407;BME280;6774;48.208;10.766;2023-02-13T02:00:37;97369.69;;;2.53;90.15
13407;BME280;6774;48.208;10.766;2023-02-13T02:03:14;97364.22;;;2.58;89.75
13407;BME280;6774;48.208;10.766;2023-02-13T02:05:47;97372.22;;;2.55;89.28
13407;BME280;6774;48.208;10.766;2023-02-13T02:08:18;97368.88;;;2.53;89.67
13407;BME280;6774;48.208;10.766;2023-02-13T02:10:52;97373.25;;;2.52;89.77
13407;BME280;6774;48.208;10.766;2023-02-13T02:13:22;97376.59;;;2.54;89.46
13407;BME280;6774;48.208;10.766;2023-02-13T02:15:52;97378.09;;;2.59;89.56
13407;BME280;6774;48.208;10.766;2023-02-13T02:18:22;97376.22;;;2.61;89.75
13407;BME280;6774;48.208;10.766;2023-02-13T02:21:12;97372.88;;;2.59;89.89
13407;BME280;6774;48.208;10.766;2023-02-13T02:24:07;97371.38;;;2.54;89.06
13407;BME280;6774;48.208;10.766;2023-02-13T02:26:59;97362.44;;;2.59;89.89
13407;BME280;6774;48.208;10.766;2023-02-13T02:29:56;97368.41;;;2.61;89.26
13407;BME280;6774;48.208;10.766;2023-02-13T02:32:49;97362.44;;;2.59;89.33
13407;BME280;6774;48.208;10.766;2023-02-13T02:35:26;97357.25;;;2.59;89.46
13407;BME280;6774;48.208;10.766;2023-02-13T02:38:14;97360.59;;;2.61;89.68
13407;BME280;6774;48.208;10.766;2023-02-13T02:40:57;97361.53;;;2.60;89.78
13407;BME280;6774;48.208;10.766;2023-02-13T02:43:43;97367.66;;;2.59;89.69
13407;BME280;6774;48.208;10.766;2023-02-13T02:46:23;97364.75;;;2.63;89.95
13407;BME280;6774;48.208;10.766;2023-02-13T02:48:55;97368.31;;;2.62;90.46
13407;BME280;6774;48.208;10.766;2023-02-13T02:51:54;97374.19;;;2.66;89.62
13407;BME280;6774;48.208;10.766;2023-02-13T02:54:29;97370.66;;;2.67;89.81
13407;BME280;6774;48.208;10.766;2023-02-13T02:57:22;97369.81;;;2.66;89.88
13407;BME280;6774;48.208;10.766;2023-02-13T02:59:56;97367.28;;;2.65;89.71
13407;BME280;6774;48.208;10.766;2023-02-13T03:02:42;97367.94;;;2.68;89.86
13407;BME280;6774;48.208;10.766;2023-02-13T03:05:32;97380.03;;;2.69;89.83
13407;BME280;6774;48.208;10.766;2023-02-13T03:08:20;97376.69;;;2.67;90.19
13407;BME280;6774;48.208;10.766;2023-02-13T03:11:08;97378.28;;;2.70;89.57
13407;BME280;6774;48.208;10.766;2023-02-13T03:13:54;97374.00;;;2.69;89.33
13407;BME280;6774;48.208;10.766;2023-02-13T03:16:24;97380.03;;;2.69;89.64
13407;BME280;6774;48.208;10.766;2023-02-13T03:19:12;97379.00;;;2.72;89.51
13407;BME280;6774;48.208;10.766;2023-02-13T03:22:05;97377.34;;;2.71;89.71
13407;BME280;6774;48.208;10.766;2023-02-13T03:24:52;97382.75;;;2.68;89.81
13407;BME280;6774;48.208;10.766;2023-02-13T03:27:33;97394.84;;;2.69;89.61
13407;BME280;6774;48.208;10.766;2023-02-13T03:30:33;97388.78;;;2.68;90.27
13407;BME280;6774;48.208;10.766;2023-02-13T03:33:11;97387.66;;;2.72;90.36
13407;BME280;6774;48.208;10.766;2023-02-13T03:35:46;97388.44;;;2.74;89.70
13407;BME280;6774;48.208;10.766;2023-02-13T03:38:41;97398.00;;;2.74;89.42
13407;BME280;6774;48.208;10.766;2023-02-13T03:41:14;97398.19;;;2.71;90.12
13407;BME280;6774;48.208;10.766;2023-02-13T03:43:51;97391.09;;;2.73;90.38
13407;BME280;6774;48.208;10.766;2023-02-13T03:46:23;97396.25;;;2.74;89.40
13407;BME280;6774;48.208;10.766;2023-02-13T03:48:55;97394.66;;;2.72;89.47
13407;BME280;6774;48.208;10.766;2023-02-13T03:51:44;97402.38;;;2.73;90.08
13407;BME280;6774;48.208;10.766;2023-02-13T03:54:20;97392.72;;;2.75;90.37
13407;BME280;6774;48.208;10.766;2023-02-13T03:57:03;97402.09;;;2.78;90.57
13407;BME280;6774;48.208;10.766;2023-02-13T03:59:49;97403.16;;;2.75;90.01
13407;BME280;6774;48.208;10.766;2023-02-13T04:02:20;97392.50;;;2.78;89.67
13407;BME280;6774;48.208;10.766;2023-02-13T04:04:54;97400.44;;;2.77;89.64
13407;BME280;6774;48.208;10.766;2023-02-13T04:07:26;97401.19;;;2.79;89.47
13407;BME280;6774;48.208;10.766;2023-02-13T04:10:01;97414.22;;;2.79;89.59
13407;BME280;6774;48.208;10.766;2023-02-13T04:12:37;97411.59;;;2.79;89.31
13407;BME280;6774;48.208;10.766;2023-02-13T04:15:08;97406.19;;;2.82;88.46
13407;BME280;6774;48.208;10.766;2023-02-13T04:17:40;97420.00;;;2.84;88.24
13407;BME280;6774;48.208;10.766;2023-02-13T04:20:10;97414.94;;;2.81;88.44
13407;BME280;6774;48.208;10.766;2023-02-13T04:22:42;97408.25;;;2.77;88.80
13407;BME280;6774;48.208;10.766;2023-02-13T04:25:13;97415.16;;;2.78;88.83
13407;BME280;6774;48.208;10.766;2023-02-13T04:27:41;97411.81;;;2.76;88.77
13407;BME280;6774;48.208;10.766;2023-02-13T04:30:10;97417.84;;;2.76;89.30
13407;BME280;6774;48.208;10.766;2023-02-13T04:32:38;97411.97;;;2.73;89.59
13407;BME280;6774;48.208;10.766;2023-02-13T04:35:06;97416.34;;;2.72;90.07
13407;BME280;6774;48.208;10.766;2023-02-13T04:37:34;97408.53;;;2.72;89.60
13407;BME280;6774;48.208;10.766;2023-02-13T04:40:02;97418.69;;;2.77;89.55
13407;BME280;6774;48.208;10.766;2023-02-13T04:42:31;97414.94;;;2.81;90.04
13407;BME280;6774;48.208;10.766;2023-02-13T04:44:59;97401.28;;;2.77;90.15
13407;BME280;6774;48.208;10.766;2023-02-13T04:47:27;97408.25;;;2.77;90.15
13407;BME280;6774;48.208;10.766;2023-02-13T04:49:55;97405.34;;;2.81;89.32
13407;BME280;6774;48.208;10.766;2023-02-13T04:52:23;97409.38;;;2.87;89.64
13407;BME280;6774;48.208;10.766;2023-02-13T04:54:50;97399.50;;;2.78;89.05
13407;BME280;6774;48.208;10.766;2023-02-13T04:57:19;97408.25;;;2.77;89.53
13407;BME280;6774;48.208;10.766;2023-02-13T04:59:48;97397.63;;;2.80;89.78
13407;BME280;6774;48.208;10.766;2023-02-13T05:02:17;97407.59;;;2.88;89.08
13407;BME280;6774;48.208;10.766;2023-02-13T05:04:44;97408.34;;;2.90;89.51
13407;BME280;6774;48.208;10.766;2023-02-13T05:07:12;97409.06;;;2.92;89.37
13407;BME280;6774;48.208;10.766;2023-02-13T05:09:40;97409.19;;;2.90;89.63
13407;BME280;6774;48.208;10.766;2023-02-13T05:12:08;97409.84;;;2.94;89.29
13407;BME280;6774;48.208;10.766;2023-02-13T05:14:36;97406.41;;;2.93;89.49
13407;BME280;6774;48.208;10.766;2023-02-13T05:17:05;97409.00;;;2.93;88.79
13407;BME280;6774;48.208;10.766;2023-02-13T05:19:33;97407.41;;;2.91;89.38
13407;BME280;6774;48.208;10.766;2023-02-13T05:22:01;97411.78;;;2.90;89.50
13407;BME280;6774;48.208;10.766;2023-02-13T05:24:46;97403.03;;;2.91;89.41
13407;BME280;6774;48.208;10.766;2023-02-13T05:27:14;97409.19;;;2.90;90.07
13407;BME280;6774;48.208;10.766;2023-02-13T05:29:42;97410.00;;;2.91;89.27
13407;BME280;6774;48.208;10.766;2023-02-13T05:32:11;97405.56;;;2.93;89.95
13407;BME280;6774;48.208;10.766;2023-02-13T05:34:39;97412.63;;;2.91;89.41
13407;BME280;6774;48.208;10.766;2023-02-13T05:37:07;97409.19;;;2.90;89.65
13407;BME280;6774;48.208;10.766;2023-02-13T05:39:35;97398.59;;;2.93;89.98
13407;BME280;6774;48.208;10.766;2023-02-13T05:42:03;97411.69;;;2.92;89.57
13407;BME280;6774;48.208;10.766;2023-02-13T05:44:31;97415.13;;;2.92;89.85
13407;BME280;6774;48.208;10.766;2023-02-13T05:46:59;97409.38;;;2.87;90.29
13407;BME280;6774;48.208;10.766;2023-02-13T05:49:28;97416.16;;;2.90;90.07
13407;BME280;6774;48.208;10.766;2023-02-13T05:51:56;97409.00;;;2.93;90.20
13407;BME280;6774;48.208;10.766;2023-02-13T05:54:24;97414.03;;;2.96;90.58
13407;BME280;6774;48.208;10.766;2023-02-13T05:56:52;97410.47;;;2.97;89.72
13407;BME280;6774;48.208;10.766;2023-02-13T05:59:20;97409.44;;;3.00;90.28
13407;BME280;6774;48.208;10.766;2023-02-13T06:01:49;97405.06;;;3.00;90.21
13407;BME280;6774;48.208;10.766;2023-02-13T06:04:17;97409.34;;;3.01;90.09
13407;BME280;6774;48.208;10.766;2023-02-13T06:06:46;97411.88;;;3.03;90.80
13407;BME280;6774;48.208;10.766;2023-02-13T06:09:14;97415.88;;;3.08;90.06
13407;BME280;6774;48.208;10.766;2023-02-13T06:11:42;97413.47;;;3.05;90.43
13407;BME280;6774;48.208;10.766;2023-02-13T06:14:10;97422.03;;;3.07;90.52
13407;BME280;6774;48.208;10.766;2023-02-13T06:16:39;97415.78;;;3.10;90.30
13407;BME280;6774;48.208;10.766;2023-02-13T06:19:07;97419.03;;;3.13;89.53
13407;BME280;6774;48.208;10.766;2023-02-13T06:21:35;97425.94;;;3.14;90.30
13407;BME280;6774;48.208;10.766;2023-02-13T06:24:06;97427.59;;;3.16;89.72
13407;BME280;6774;48.208;10.766;2023-02-13T06:26:35;97421.66;;;3.13;89.27
13407;BME280;6774;48.208;10.766;2023-02-13T06:29:03;97424.38;;;3.12;89.71
13407;BME280;6774;48.208;10.766;2023-02-13T06:31:32;97417.91;;;3.18;88.72
13407;BME280;6774;48.208;10.766;2023-02-13T06:33:59;97419.78;;;3.16;89.16
13407;BME280;6774;48.208;10.766;2023-02-13T06:36:27;97431.06;;;3.16;88.84
13407;BME280;6774;48.208;10.766;2023-02-13T06:38:55;97427.81;;;3.12;89.16
13407;BME280;6774;48.208;10.766;2023-02-13T06:41:24;97430.50;;;3.11;88.66
13407;BME280;6774;48.208;10.766;2023-02-13T06:43:52;97442.88;;;3.07;88.55
13407;BME280;6774;48.208;10.766;2023-02-13T06:46:20;97431.53;;;3.08;89.16
13407;BME280;6774;48.208;10.766;2023-02-13T06:48:48;97439.19;;;3.11;89.10
13407;BME280;6774;48.208;10.766;2023-02-13T06:51:16;97435.63;;;3.12;89.12
13407;BME280;6774;48.208;10.766;2023-02-13T06:53:43;97435.25;;;3.19;88.58
13407;BME280;6774;48.208;10.766;2023-02-13T06:56:11;97441.22;;;3.21;88.98
13407;BME280;6774;48.208;10.766;2023-02-13T06:58:40;97441.03;;;3.24;88.39
13407;BME280;6774;48.208;10.766;2023-02-13T07:01:07;97450.53;;;3.25;88.43
13407;BME280;6774;48.208;10.766;2023-02-13T07:03:35;97445.50;;;3.22;87.91
13407;BME280;6774;48.208;10.766;2023-02-13T07:06:04;97447.06;;;3.24;87.99
13407;BME280;6774;48.208;10.766;2023-02-13T07:08:31;97448.84;;;3.24;87.59
13407;BME280;6774;48.208;10.766;2023-02-13T07:10:59;97449.69;;;3.24;87.46
13407;BME280;6774;48.208;10.766;2023-02-13T07:13:27;97456.78;;;3.22;87.59
13407;BME280;6774;48.208;10.766;2023-02-13T07:15:59;97454.59;;;3.29;87.54
13407;BME280;6774;48.208;10.766;2023-02-13T07:18:27;97458.25;;;3.26;87.48
13407;BME280;6774;48.208;10.766;2023-02-13T07:20:54;97469.34;;;3.30;87.24
13407;BME280;6774;48.208;10.766;2023-02-13T07:23:25;97469.34;;;3.30;87.42
13407;BME280;6774;48.208;10.766;2023-02-13T07:25:53;97472.88;;;3.29;87.40
13407;BME280;6774;48.208;10.766;2023-02-13T07:28:20;97478.09;;;3.29;87.19
13407;BME280;6774;48.208;10.766;2023-02-13T07:30:48;97476.34;;;3.29;86.99
13407;BME280;6774;48.208;10.766;2023-02-13T07:33:17;97478.09;;;3.29;87.45
13407;BME280;6774;48.208;10.766;2023-02-13T07:35:46;97480.63;;;3.30;87.38
13407;BME280;6774;48.208;10.766;2023-02-13T07:38:13;97478.84;;;3.31;87.42
13407;BME280;6774;48.208;10.766;2023-02-13T07:40:41;97476.03;;;3.34;87.40
13407;BME280;6774;48.208;10.766;2023-02-13T07:43:09;97479.22;;;3.39;87.09
13407;BME280;6774;48.208;10.766;2023-02-13T07:45:38;97476.41;;;3.42;87.12
13407;BME280;6774;48.208;10.766;2023-02-13T07:48:05;97484.03;;;3.45;86.62
13407;BME280;6774;48.208;10.766;2023-02-13T07:50:34;97477.97;;;3.45;86.82
13407;BME280;6774;48.208;10.766;2023-02-13T07:53:02;97478.81;;;3.45;86.90
13407;BME280;6774;48.208;10.766;2023-02-13T07:55:30;97480.13;;;3.52;87.06
13407;BME280;6774;48.208;10.766;2023-02-13T07:57:59;97479.19;;;3.53;86.65
13407;BME280;6774;48.208;10.766;2023-02-13T08:00:27;97482.63;;;3.54;86.28
13407;BME280;6774;48.208;10.766;2023-02-13T08:02:57;97487.00;;;3.53;85.65
13407;BME280;6774;48.208;10.766;2023-02-13T08:05:25;97484.78;;;3.47;85.57
13407;BME280;6774;48.208;10.766;2023-02-13T08:07:54;97482.75;;;3.38;85.74
13407;BME280;6774;48.208;10.766;2023-02-13T08:10:22;97486.84;;;3.42;86.50
13407;BME280;6774;48.208;10.766;2023-02-13T08:13:08;97487.38;;;3.47;86.39
13407;BME280;6774;48.208;10.766;2023-02-13T08:15:38;97490.66;;;3.51;86.44
13407;BME280;6774;48.208;10.766;2023-02-13T08:18:06;97489.53;;;3.55;86.24
13407;BME280;6774;48.208;10.766;2023-02-13T08:20:34;97491.50;;;3.51;86.54
13407;BME280;6774;48.208;10.766;2023-02-13T08:23:05;97487.22;;;3.50;86.44
13407;BME280;6774;48.208;10.766;2023-02-13T08:25:33;97486.81;;;3.56;86.63
13407;BME280;6774;48.208;10.766;2023-02-13T08:28:01;97490.19;;;3.58;85.88
13407;BME280;6774;48.208;10.766;2023-02-13T08:30:30;97500.63;;;3.58;85.74
13407;BME280;6774;48.208;10.766;2023-02-13T08:32:58;97498.97;;;3.57;86.14
13407;BME280;6774;48.208;10.766;2023-02-13T08:35:25;97500.91;;;3.68;86.50
13407;BME280;6774;48.208;10.766;2023-02-13T08:37:55;97490.56;;;3.66;86.12
13407;BME280;6774;48.208;10.766;2023-02-13T08:40:25;97503.03;;;3.76;85.62
13407;BME280;6774;48.208;10.766;2023-02-13T08:42:58;97502.00;;;3.78;85.60
13407;BME280;6774;48.208;10.766;2023-02-13T08:45:26;97503.03;;;3.76;85.76
13407;BME280;6774;48.208;10.766;2023-02-13T08:47:55;97502.63;;;3.82;85.52
13407;BME280;6774;48.208;10.766;2023-02-13T08:50:23;97504.13;;;3.86;85.02
13407;BME280;6774;48.208;10.766;2023-02-13T08:52:52;97503.91;;;3.89;84.87
13407;BME280;6774;48.208;10.766;2023-02-13T08:55:20;97500.16;;;3.93;84.51
13407;BME280;6774;48.208;10.766;2023-02-13T08:57:49;97504.84;;;3.88;84.00
13407;BME280;6774;48.208;10.766;2023-02-13T09:00:18;97503.41;;;3.69;83.78
13407;BME280;6774;48.208;10.766;2023-02-13T09:02:46;97501.53;;;3.71;84.84
13407;BME280;6774;48.208;10.766;2023-02-13T09:05:14;97500.31;;;3.77;85.20
13407;BME280;6774;48.208;10.766;2023-02-13T09:07:41;97500.75;;;3.84;85.06
13407;BME280;6774;48.208;10.766;2023-02-13T09:10:10;97505.78;;;3.87;84.53
13407;BME280;6774;48.208;10.766;2023-02-13T09:12:38;97509.97;;;3.89;84.87
13407;BME280;6774;48.208;10.766;2023-02-13T09:15:08;97504.16;;;3.98;85.33
13407;BME280;6774;48.208;10.766;2023-02-13T09:17:36;97507.88;;;4.09;84.88
13407;BME280;6774;48.208;10.766;2023-02-13T09:20:05;97504.41;;;4.08;83.87
13407;BME280;6774;48.208;10.766;2023-02-13T09:22:33;97505.16;;;4.10;83.78
13407;BME280;6774;48.208;10.766;2023-02-13T09:25:00;97507.59;;;4.13;83.72
13407;BME280;6774;48.208;10.766;2023-02-13T09:27:30;97512.91;;;4.12;83.42
13407;BME280;6774;48.208;10.766;2023-02-13T09:29:59;97511.31;;;4.09;83.25
13407;BME280;6774;48.208;10.766;2023-02-13T09:32:29;97520.19;;;4.07;83.94
13407;BME280;6774;48.208;10.766;2023-02-13T09:34:56;97519.06;;;4.11;82.92
13407;BME280;6774;48.208;10.766;2023-02-13T09:37:26;97526.06;;;4.10;83.21
13407;BME280;6774;48.208;10.766;2023-02-13T09:39:54;97520.75;;;4.12;83.43
13407;BME280;6774;48.208;10.766;2023-02-13T09:42:23;97517.84;;;4.16;84.21
13407;BME280;6774;48.208;10.766;2023-02-13T09:44:56;97513.91;;;4.23;84.53
13407;BME280;6774;48.208;10.766;2023-02-13T09:47:30;97512.75;;;4.27;83.85
13407;BME280;6774;48.208;10.766;2023-02-13T09:50:01;97506.56;;;4.28;83.21
13407;BME280;6774;48.208;10.766;2023-02-13T09:52:32;97519.66;;;4.28;82.95
13407;BME280;6774;48.208;10.766;2023-02-13T09:55:01;97513.47;;;4.29;83.23
13407;BME280;6774;48.208;10.766;2023-02-13T09:57:33;97515.19;;;4.31;82.68
13407;BME280;6774;48.208;10.766;2023-02-13T10:00:06;97514.34;;;4.30;82.87
13407;BME280;6774;48.208;10.766;2023-02-13T10:05:41;97519.59;;;4.16;82.33
13407;BME280;6774;48.208;10.766;2023-02-13T10:08:20;97512.81;;;4.13;82.13
13407;BME280;6774;48.208;10.766;2023-02-13T10:10:56;97514.13;;;4.06;82.70
13407;BME280;6774;48.208;10.766;2023-02-13T10:16:20;97513.44;;;4.17;83.66
13407;BME280;6774;48.208;10.766;2023-02-13T10:18:54;97516.59;;;4.22;82.90
13407;BME280;6774;48.208;10.766;2023-02-13T10:21:27;97520.59;;;4.27;82.96
13407;BME280;6774;48.208;10.766;2023-02-13T10:23:58;97521.03;;;4.34;83.30
13407;BME280;6774;48.208;10.766;2023-02-13T10:26:31;97516.44;;;4.38;82.72
13407;BME280;6774;48.208;10.766;2023-02-13T10:29:14;97522.94;;;4.45;82.00
13407;BME280;6774;48.208;10.766;2023-02-13T10:32:05;97521.81;;;4.49;81.87
13407;BME280;6774;48.208;10.766;2023-02-13T10:34:41;97514.25;;;4.44;81.41
13407;BME280;6774;48.208;10.766;2023-02-13T10:37:13;97516.03;;;4.44;81.15
13407;BME280;6774;48.208;10.766;2023-02-13T10:39:44;97517.72;;;4.45;81.51
13407;BME280;6774;48.208;10.766;2023-02-13T10:42:20;97510.59;;;4.47;81.99
13407;BME280;6774;48.208;10.766;2023-02-13T10:45:08;97510.22;;;4.53;82.14
13407;BME280;6774;48.208;10.766;2023-02-13T10:47:54;97499.97;;;4.63;82.20
13407;BME280;6774;48.208;10.766;2023-02-13T10:50:30;97497.91;;;4.68;80.87
13407;BME280;6774;48.208;10.766;2023-02-13T10:53:10;97500.59;;;4.66;81.55
13407;BME280;6774;48.208;10.766;2023-02-13T10:55:55;97496.47;;;4.76;81.88
13407;BME280;6774;48.208;10.766;2023-02-13T10:58:33;97495.69;;;4.74;80.52
13407;BME280;6774;48.208;10.766;2023-02-13T11:01:08;97496.47;;;4.76;81.14
13407;BME280;6774;48.208;10.766;2023-02-13T11:03:40;97491.22;;;4.76;81.08
13407;BME280;6774;48.208;10.766;2023-02-13T11:06:13;97483.78;;;4.83;81.17
13407;BME280;6774;48.208;10.766;2023-02-13T11:08:44;97485.38;;;4.85;80.83
13407;BME280;6774;48.208;10.766;2023-02-13T11:11:30;97481.16;;;4.83;80.98
13407;BME280;6774;48.208;10.766;2023-02-13T11:14:14;97479.81;;;4.90;81.01
13407;BME280;6774;48.208;10.766;2023-02-13T11:16:47;97476.16;;;4.93;80.17
13407;BME280;6774;48.208;10.766;2023-02-13T11:19:18;97481.38;;;4.93;80.05
13407;BME280;6774;48.208;10.766;2023-02-13T11:21:53;97475.22;;;4.94;79.91
13407;BME280;6774;48.208;10.766;2023-02-13T11:24:23;97474.78;;;5.00;80.12
13407;BME280;6774;48.208;10.766;2023-02-13T11:26:56;97473.44;;;5.07;80.49
13407;BME280;6774;48.208;10.766;2023-02-13T11:29:27;97469.47;;;5.14;80.31
13407;BME280;6774;48.208;10.766;2023-02-13T11:32:06;97469.47;;;5.14;79.58
13407;BME280;6774;48.208;10.766;2023-02-13T11:34:38;97470.50;;;5.11;79.02
13407;BME280;6774;48.208;10.766;2023-02-13T11:37:20;97477.72;;;5.08;78.77
13407;BME280;6774;48.208;10.766;2023-02-13T11:39:50;97472.50;;;5.08;78.91
13407;BME280;6774;48.208;10.766;2023-02-13T11:42:27;97477.44;;;5.12;79.11
13407;BME280;6774;48.208;10.766;2023-02-13T11:44:58;97470.41;;;5.13;78.69
13407;BME280;6774;48.208;10.766;2023-02-13T11:47:33;97469.34;;;5.16;79.02
13407;BME280;6774;48.208;10.766;2023-02-13T11:50:02;97478.03;;;5.16;78.82
13407;BME280;6774;48.208;10.766;2023-02-13T11:52:33;97467.56;;;5.16;78.79
13407;BME280;6774;48.208;10.766;2023-02-13T11:55:04;97469.25;;;5.17;78.55
13407;BME280;6774;48.208;10.766;2023-02-13T11:57:33;97472.81;;;5.03;78.06
13407;BME280;6774;48.208;10.766;2023-02-13T12:00:26;97462.75;;;4.84;78.30
13407;BME280;6774;48.208;10.766;2023-02-13T12:02:56;97461.50;;;4.90;79.12
13407;BME280;6774;48.208;10.766;2023-02-13T12:05:26;97463.19;;;5.04;79.31
13407;BME280;6774;48.208;10.766;2023-02-13T12:07:59;97465.25;;;5.11;79.12
13407;BME280;6774;48.208;10.766;2023-02-13T12:10:29;97469.03;;;5.07;78.84
13407;BME280;6774;48.208;10.766;2023-02-13T12:13:13;97469.56;;;5.12;79.19
13407;BME280;6774;48.208;10.766;2023-02-13T12:15:42;97474.47;;;5.17;79.18
13407;BME280;6774;48.208;10.766;2023-02-13T12:18:15;97468.84;;;5.23;78.85
13407;BME280;6774;48.208;10.766;2023-02-13T12:20:52;97460.88;;;5.25;78.63
13407;BME280;6774;48.208;10.766;2023-02-13T12:23:31;97462.66;;;5.24;77.93
13407;BME280;6774;48.208;10.766;2023-02-13T12:26:11;97462.44;;;5.27;77.87
13407;BME280;6774;48.208;10.766;2023-02-13T12:28:55;97454.16;;;5.21;77.36
13407;BME280;6774;48.208;10.766;2023-02-13T12:31:53;97451.47;;;5.22;78.11
13407;BME280;6774;48.208;10.766;2023-02-13T12:34:37;97455.28;;;5.29;78.66
13407;BME280;6774;48.208;10.766;2023-02-13T12:37:15;97446.38;;;5.45;79.13
13407;BME280;6774;48.208;10.766;2023-02-13T12:39:57;97449.81;;;5.58;79.18
13407;BME280;6774;48.208;10.766;2023-02-13T12:42:36;97444.66;;;5.56;78.52
13407;BME280;6774;48.208;10.766;2023-02-13T12:45:16;97447.63;;;5.52;78.48
13407;BME280;6774;48.208;10.766;2023-02-13T12:48:09;97444.72;;;5.43;78.22
13407;BME280;6774;48.208;10.766;2023-02-13T12:51:03;97438.94;;;5.38;77.84
13407;BME280;6774;48.208;10.766;2023-02-13T12:53:45;97431.94;;;5.39;77.95
13407;BME280;6774;48.208;10.766;2023-02-13T12:56:26;97432.56;;;5.42;78.48
13407;BME280;6774;48.208;10.766;2023-02-13T12:59:03;97436.44;;;5.50;79.19
13407;BME280;6774;48.208;10.766;2023-02-13T13:01:45;97438.22;;;5.49;78.85
13407;BME280;6774;48.208;10.766;2023-02-13T13:04:19;97434.00;;;5.59;79.08
13407;BME280;6774;48.208;10.766;2023-02-13T13:07:06;97427.97;;;5.70;78.40
13407;BME280;6774;48.208;10.766;2023-02-13T13:09:59;97428.22;;;5.67;76.48
13407;BME280;6774;48.208;10.766;2023-02-13T13:12:38;97419.13;;;5.60;76.54
13407;BME280;6774;48.208;10.766;2023-02-13T13:15:16;97418.47;;;5.56;76.35
13407;BME280;6774;48.208;10.766;2023-02-13T13:17:58;97426.69;;;5.52;76.46
13407;BME280;6774;48.208;10.766;2023-02-13T13:20:55;97417.34;;;5.48;76.81
13407;BME280;6774;48.208;10.766;2023-02-13T13:23:30;97416.44;;;5.49;76.71
13407;BME280;6774;48.208;10.766;2023-02-13T13:26:06;97419.13;;;5.47;76.96
13407;BME280;6774;48.208;10.766;2023-02-13T13:28:40;97420.09;;;5.46;77.23
13407;BME280;6774;48.208;10.766;2023-02-13T13:31:10;97414.00;;;5.46;76.80
13407;BME280;6774;48.208;10.766;2023-02-13T13:33:42;97423.53;;;5.47;77.56
13407;BME280;6774;48.208;10.766;2023-02-13T13:36:15;97421.25;;;5.42;77.92
13407;BME280;6774;48.208;10.766;2023-02-13T13:38:54;97411.19;;;5.49;77.79
13407;BME280;6774;48.208;10.766;2023-02-13T13:41:29;97421.22;;;5.55;77.57
13407;BME280;6774;48.208;10.766;2023-02-13T13:44:24;97420.25;;;5.68;78.62
13407;BME280;6774;48.208;10.766;2023-02-13T13:47:02;97422.22;;;5.65;78.14